sensor_id;sensor_type;location;lat;lon;timestamp;P1;durP1;ratioP1;P2;durP2;ratioP2
23586;SDS011;11971;51.148;4.104;2023-05-19T00:02:24;87.25;;;37.97;;
23586;SDS011;11971;51.148;4.104;2023-05-19T00:04:51;88.38;;;37.88;;
23586;SDS011;11971;51.148;4.104;2023-05-19T00:07:18;90.75;;;37.83;;
23586;SDS011;11971;51.148;4.104;2023-05-19T00:09:51;87.70;;;38.03;;
23586;SDS011;11971;51.148;4.104;2023-05-19T00:14:45;87.55;;;37.33;;
23586;SDS011;11971;51.148;4.104;2023-05-19T00:17:13;89.70;;;38.10;;
23586;SDS011;11971;51.148;4.104;2023-05-19T00:19:41;83.85;;;37.65;;
23586;SDS011;11971;51.148;4.104;2023-05-19T00:22:09;84.65;;;37.90;;
23586;SDS011;11971;51.148;4.104;2023-05-19T00:24:35;85.85;;;38.25;;
23586;SDS011;11971;51.148;4.104;2023-05-19T00:27:04;85.55;;;38.00;;
23586;SDS011;11971;51.148;4.104;2023-05-19T00:29:30;84.00;;;37.72;;
23586;SDS011;11971;51.148;4.104;2023-05-19T00:31:57;84.88;;;37.83;;
23586;SDS011;11971;51.148;4.104;2023-05-19T00:34:24;82.80;;;37.28;;
23586;SDS011;11971;51.148;4.104;2023-05-19T00:36:50;85.90;;;37.67;;
23586;SDS011;11971;51.148;4.104;2023-05-19T00:39:17;84.93;;;37.75;;
23586;SDS011;11971;51.148;4.104;2023-05-19T00:41:44;86.55;;;38.05;;
23586;SDS011;11971;51.148;4.104;2023-05-19T00:44:12;85.70;;;38.17;;
23586;SDS011;11971;51.148;4.104;2023-05-19T00:46:39;86.53;;;38.77;;
23586;SDS011;11971;51.148;4.104;2023-05-19T00:49:05;87.20;;;38.05;;
23586;SDS011;11971;51.148;4.104;2023-05-19T00:51:32;87.07;;;38.05;;
23586;SDS011;11971;51.148;4.104;2023-05-19T00:53:59;85.75;;;38.33;;
23586;SDS011;11971;51.148;4.104;2023-05-19T00:56:25;87.28;;;37.92;;
23586;SDS011;11971;51.148;4.104;2023-05-19T00:58:52;91.78;;;38.90;;
23586;SDS011;11971;51.148;4.104;2023-05-19T01:01:21;88.10;;;38.40;;
23586;SDS011;11971;51.148;4.104;2023-05-19T01:03:50;91.00;;;38.30;;
23586;SDS011;11971;51.148;4.104;2023-05-19T01:06:20;84.40;;;38.13;;
23586;SDS011;11971;51.148;4.104;2023-05-19T01:08:47;86.43;;;38.30;;
23586;SDS011;11971;51.148;4.104;2023-05-19T01:11:14;93.55;;;39.10;;
23586;SDS011;11971;51.148;4.104;2023-05-19T01:13:40;88.45;;;38.38;;
23586;SDS011;11971;51.148;4.104;2023-05-19T01:16:08;89.53;;;38.00;;
23586;SDS011;11971;51.148;4.104;2023-05-19T01:18:42;82.28;;;37.35;;
23586;SDS011;11971;51.148;4.104;2023-05-19T01:21:19;88.85;;;38.08;;
23586;SDS011;11971;51.148;4.104;2023-05-19T01:24:03;85.63;;;38.42;;
23586;SDS011;11971;51.148;4.104;2023-05-19T01:29:15;92.35;;;38.15;;
23586;SDS011;11971;51.148;4.104;2023-05-19T01:32:02;87.72;;;38.60;;
23586;SDS011;11971;51.148;4.104;2023-05-19T01:34:30;92.22;;;38.90;;
23586;SDS011;11971;51.148;4.104;2023-05-19T01:36:56;85.45;;;38.00;;
23586;SDS011;11971;51.148;4.104;2023-05-19T01:39:24;82.60;;;37.63;;
23586;SDS011;11971;51.148;4.104;2023-05-19T01:41:51;84.10;;;38.15;;
23586;SDS011;11971;51.148;4.104;2023-05-19T01:44:19;88.70;;;37.47;;
23586;SDS011;11971;51.148;4.104;2023-05-19T01:46:46;83.93;;;37.80;;
23586;SDS011;11971;51.148;4.104;2023-05-19T01:49:14;86.47;;;38.22;;
23586;SDS011;11971;51.148;4.104;2023-05-19T01:51:41;86.20;;;38.60;;
23586;SDS011;11971;51.148;4.104;2023-05-19T01:54:08;86.82;;;38.97;;
23586;SDS011;11971;51.148;4.104;2023-05-19T01:56:37;89.13;;;38.80;;
23586;SDS011;11971;51.148;4.104;2023-05-19T01:59:11;91.15;;;38.75;;
23586;SDS011;11971;51.148;4.104;2023-05-19T02:01:48;92.32;;;39.33;;
23586;SDS011;11971;51.148;4.104;2023-05-19T02:04:30;88.97;;;39.05;;
23586;SDS011;11971;51.148;4.104;2023-05-19T02:07:04;85.35;;;38.70;;
23586;SDS011;11971;51.148;4.104;2023-05-19T02:09:38;85.30;;;39.05;;
23586;SDS011;11971;51.148;4.104;2023-05-19T02:14:38;88.03;;;38.63;;
23586;SDS011;11971;51.148;4.104;2023-05-19T02:17:05;91.68;;;38.53;;
23586;SDS011;11971;51.148;4.104;2023-05-19T02:19:37;84.28;;;38.42;;
23586;SDS011;11971;51.148;4.104;2023-05-19T02:22:04;83.68;;;37.90;;
23586;SDS011;11971;51.148;4.104;2023-05-19T02:24:31;83.35;;;38.00;;
23586;SDS011;11971;51.148;4.104;2023-05-19T02:26:58;84.60;;;38.15;;
23586;SDS011;11971;51.148;4.104;2023-05-19T02:29:25;82.97;;;38.03;;
23586;SDS011;11971;51.148;4.104;2023-05-19T02:31:51;91.07;;;39.35;;
23586;SDS011;11971;51.148;4.104;2023-05-19T02:34:18;90.70;;;38.05;;
23586;SDS011;11971;51.148;4.104;2023-05-19T02:36:46;90.40;;;38.65;;
23586;SDS011;11971;51.148;4.104;2023-05-19T02:39:13;82.85;;;37.72;;
23586;SDS011;11971;51.148;4.104;2023-05-19T02:41:40;86.53;;;38.53;;
23586;SDS011;11971;51.148;4.104;2023-05-19T02:44:07;83.15;;;37.67;;
23586;SDS011;11971;51.148;4.104;2023-05-19T02:46:34;86.53;;;38.35;;
23586;SDS011;11971;51.148;4.104;2023-05-19T02:49:01;85.65;;;37.97;;
23586;SDS011;11971;51.148;4.104;2023-05-19T02:51:27;84.10;;;37.90;;
23586;SDS011;11971;51.148;4.104;2023-05-19T02:53:56;87.55;;;38.15;;
23586;SDS011;11971;51.148;4.104;2023-05-19T02:56:22;90.27;;;39.07;;
23586;SDS011;11971;51.148;4.104;2023-05-19T02:58:50;84.38;;;38.10;;
23586;SDS011;11971;51.148;4.104;2023-05-19T03:01:17;85.90;;;37.80;;
23586;SDS011;11971;51.148;4.104;2023-05-19T03:03:45;87.37;;;38.40;;
23586;SDS011;11971;51.148;4.104;2023-05-19T03:06:12;83.20;;;38.00;;
23586;SDS011;11971;51.148;4.104;2023-05-19T03:08:39;84.53;;;38.22;;
23586;SDS011;11971;51.148;4.104;2023-05-19T03:11:07;88.60;;;37.65;;
23586;SDS011;11971;51.148;4.104;2023-05-19T03:13:34;84.43;;;38.60;;
23586;SDS011;11971;51.148;4.104;2023-05-19T03:16:01;86.45;;;38.20;;
23586;SDS011;11971;51.148;4.104;2023-05-19T03:18:28;82.68;;;37.60;;
23586;SDS011;11971;51.148;4.104;2023-05-19T03:20:55;84.72;;;38.30;;
23586;SDS011;11971;51.148;4.104;2023-05-19T03:23:21;86.00;;;37.55;;
23586;SDS011;11971;51.148;4.104;2023-05-19T03:25:48;84.38;;;38.33;;
23586;SDS011;11971;51.148;4.104;2023-05-19T03:28:16;83.82;;;37.33;;
23586;SDS011;11971;51.148;4.104;2023-05-19T03:30:43;84.43;;;37.93;;
23586;SDS011;11971;51.148;4.104;2023-05-19T03:33:10;85.80;;;37.78;;
23586;SDS011;11971;51.148;4.104;2023-05-19T03:35:36;86.90;;;38.05;;
23586;SDS011;11971;51.148;4.104;2023-05-19T03:38:03;83.53;;;37.90;;
23586;SDS011;11971;51.148;4.104;2023-05-19T03:40:30;83.15;;;38.20;;
23586;SDS011;11971;51.148;4.104;2023-05-19T03:42:57;89.32;;;38.50;;
23586;SDS011;11971;51.148;4.104;2023-05-19T03:45:26;87.30;;;38.40;;
23586;SDS011;11971;51.148;4.104;2023-05-19T03:47:53;90.07;;;38.13;;
23586;SDS011;11971;51.148;4.104;2023-05-19T03:50:20;93.07;;;38.33;;
23586;SDS011;11971;51.148;4.104;2023-05-19T03:52:47;86.10;;;37.63;;
23586;SDS011;11971;51.148;4.104;2023-05-19T03:55:14;83.03;;;37.53;;
23586;SDS011;11971;51.148;4.104;2023-05-19T03:57:40;86.55;;;38.08;;
23586;SDS011;11971;51.148;4.104;2023-05-19T04:00:08;90.00;;;38.70;;
23586;SDS011;11971;51.148;4.104;2023-05-19T04:02:37;85.57;;;37.57;;
23586;SDS011;11971;51.148;4.104;2023-05-19T04:05:04;83.30;;;38.40;;
23586;SDS011;11971;51.148;4.104;2023-05-19T04:07:31;85.93;;;38.65;;
23586;SDS011;11971;51.148;4.104;2023-05-19T04:09:58;85.97;;;38.35;;
23586;SDS011;11971;51.148;4.104;2023-05-19T04:12:25;85.70;;;38.22;;
23586;SDS011;11971;51.148;4.104;2023-05-19T04:14:52;85.88;;;38.33;;
23586;SDS011;11971;51.148;4.104;2023-05-19T04:17:18;87.68;;;38.33;;
23586;SDS011;11971;51.148;4.104;2023-05-19T04:19:49;85.72;;;37.92;;
23586;SDS011;11971;51.148;4.104;2023-05-19T04:22:15;83.83;;;37.53;;
23586;SDS011;11971;51.148;4.104;2023-05-19T04:24:42;85.80;;;38.10;;
23586;SDS011;11971;51.148;4.104;2023-05-19T04:27:10;83.20;;;38.17;;
23586;SDS011;11971;51.148;4.104;2023-05-19T04:29:36;87.93;;;38.38;;
23586;SDS011;11971;51.148;4.104;2023-05-19T04:32:04;88.97;;;38.33;;
23586;SDS011;11971;51.148;4.104;2023-05-19T04:34:32;84.78;;;38.53;;
23586;SDS011;11971;51.148;4.104;2023-05-19T04:37:00;83.30;;;37.42;;
23586;SDS011;11971;51.148;4.104;2023-05-19T04:39:27;88.70;;;38.28;;
23586;SDS011;11971;51.148;4.104;2023-05-19T04:41:54;83.57;;;37.30;;
23586;SDS011;11971;51.148;4.104;2023-05-19T04:44:20;84.53;;;38.15;;
23586;SDS011;11971;51.148;4.104;2023-05-19T04:46:47;85.95;;;37.45;;
23586;SDS011;11971;51.148;4.104;2023-05-19T04:49:18;87.55;;;38.28;;
23586;SDS011;11971;51.148;4.104;2023-05-19T04:51:45;83.80;;;37.20;;
23586;SDS011;11971;51.148;4.104;2023-05-19T04:54:15;87.93;;;37.83;;
23586;SDS011;11971;51.148;4.104;2023-05-19T04:56:42;82.45;;;37.53;;
23586;SDS011;11971;51.148;4.104;2023-05-19T04:59:09;84.05;;;37.80;;
23586;SDS011;11971;51.148;4.104;2023-05-19T05:01:35;82.18;;;37.38;;
23586;SDS011;11971;51.148;4.104;2023-05-19T05:04:04;92.68;;;37.92;;
23586;SDS011;11971;51.148;4.104;2023-05-19T05:06:31;88.50;;;37.90;;
23586;SDS011;11971;51.148;4.104;2023-05-19T05:08:57;85.13;;;37.53;;
23586;SDS011;11971;51.148;4.104;2023-05-19T05:11:27;87.35;;;38.25;;
23586;SDS011;11971;51.148;4.104;2023-05-19T05:16:22;83.18;;;37.40;;
23586;SDS011;11971;51.148;4.104;2023-05-19T05:18:49;84.10;;;38.05;;
23586;SDS011;11971;51.148;4.104;2023-05-19T05:21:16;87.82;;;39.00;;
23586;SDS011;11971;51.148;4.104;2023-05-19T05:23:44;86.97;;;37.72;;
23586;SDS011;11971;51.148;4.104;2023-05-19T05:26:13;92.80;;;38.25;;
23586;SDS011;11971;51.148;4.104;2023-05-19T05:28:44;91.35;;;39.05;;
23586;SDS011;11971;51.148;4.104;2023-05-19T05:31:11;93.75;;;37.50;;
23586;SDS011;11971;51.148;4.104;2023-05-19T05:33:37;91.68;;;38.35;;
23586;SDS011;11971;51.148;4.104;2023-05-19T05:36:04;88.10;;;38.92;;
23586;SDS011;11971;51.148;4.104;2023-05-19T05:38:32;90.13;;;39.08;;
23586;SDS011;11971;51.148;4.104;2023-05-19T05:40:59;96.18;;;39.17;;
23586;SDS011;11971;51.148;4.104;2023-05-19T05:43:27;87.07;;;38.72;;
23586;SDS011;11971;51.148;4.104;2023-05-19T05:45:55;91.10;;;38.03;;
23586;SDS011;11971;51.148;4.104;2023-05-19T05:48:22;97.00;;;39.53;;
23586;SDS011;11971;51.148;4.104;2023-05-19T05:50:49;92.82;;;38.72;;
23586;SDS011;11971;51.148;4.104;2023-05-19T05:53:16;94.78;;;39.20;;
23586;SDS011;11971;51.148;4.104;2023-05-19T05:55:44;90.45;;;39.17;;
23586;SDS011;11971;51.148;4.104;2023-05-19T05:58:11;97.22;;;39.50;;
23586;SDS011;11971;51.148;4.104;2023-05-19T06:00:39;90.75;;;39.35;;
23586;SDS011;11971;51.148;4.104;2023-05-19T06:03:08;91.18;;;39.67;;
23586;SDS011;11971;51.148;4.104;2023-05-19T06:05:35;87.80;;;39.05;;
23586;SDS011;11971;51.148;4.104;2023-05-19T06:08:02;92.93;;;39.67;;
23586;SDS011;11971;51.148;4.104;2023-05-19T06:10:30;90.38;;;39.55;;
23586;SDS011;11971;51.148;4.104;2023-05-19T06:12:56;90.35;;;39.30;;
23586;SDS011;11971;51.148;4.104;2023-05-19T06:15:23;90.85;;;39.47;;
23586;SDS011;11971;51.148;4.104;2023-05-19T06:17:50;91.22;;;40.00;;
23586;SDS011;11971;51.148;4.104;2023-05-19T06:20:18;91.20;;;39.65;;
23586;SDS011;11971;51.148;4.104;2023-05-19T06:22:45;98.17;;;40.33;;
23586;SDS011;11971;51.148;4.104;2023-05-19T06:25:13;92.28;;;40.22;;
23586;SDS011;11971;51.148;4.104;2023-05-19T06:27:40;99.20;;;39.38;;
23586;SDS011;11971;51.148;4.104;2023-05-19T06:30:08;89.45;;;39.25;;
23586;SDS011;11971;51.148;4.104;2023-05-19T06:32:35;95.88;;;40.25;;
23586;SDS011;11971;51.148;4.104;2023-05-19T06:35:01;94.30;;;40.38;;
23586;SDS011;11971;51.148;4.104;2023-05-19T06:37:30;94.15;;;39.85;;
23586;SDS011;11971;51.148;4.104;2023-05-19T06:39:56;93.88;;;39.60;;
23586;SDS011;11971;51.148;4.104;2023-05-19T06:42:23;92.15;;;40.13;;
23586;SDS011;11971;51.148;4.104;2023-05-19T06:44:50;94.45;;;40.22;;
23586;SDS011;11971;51.148;4.104;2023-05-19T06:47:17;91.68;;;39.47;;
23586;SDS011;11971;51.148;4.104;2023-05-19T06:49:44;98.57;;;40.28;;
23586;SDS011;11971;51.148;4.104;2023-05-19T06:52:14;92.28;;;40.22;;
23586;SDS011;11971;51.148;4.104;2023-05-19T06:54:42;95.03;;;40.88;;
23586;SDS011;11971;51.148;4.104;2023-05-19T06:57:09;92.67;;;39.73;;
23586;SDS011;11971;51.148;4.104;2023-05-19T06:59:36;99.05;;;41.20;;
23586;SDS011;11971;51.148;4.104;2023-05-19T07:02:05;92.25;;;40.30;;
23586;SDS011;11971;51.148;4.104;2023-05-19T07:04:32;96.03;;;40.17;;
23586;SDS011;11971;51.148;4.104;2023-05-19T07:06:58;99.55;;;40.17;;
23586;SDS011;11971;51.148;4.104;2023-05-19T07:09:25;95.53;;;40.45;;
23586;SDS011;11971;51.148;4.104;2023-05-19T07:11:53;102.13;;;40.88;;
23586;SDS011;11971;51.148;4.104;2023-05-19T07:14:23;97.50;;;40.80;;
23586;SDS011;11971;51.148;4.104;2023-05-19T07:16:50;93.60;;;40.97;;
23586;SDS011;11971;51.148;4.104;2023-05-19T07:19:16;95.43;;;40.97;;
23586;SDS011;11971;51.148;4.104;2023-05-19T07:21:44;93.90;;;40.58;;
23586;SDS011;11971;51.148;4.104;2023-05-19T07:24:11;104.85;;;40.75;;
23586;SDS011;11971;51.148;4.104;2023-05-19T07:26:38;94.75;;;40.60;;
23586;SDS011;11971;51.148;4.104;2023-05-19T07:29:06;96.13;;;40.83;;
23586;SDS011;11971;51.148;4.104;2023-05-19T07:31:34;95.68;;;40.92;;
23586;SDS011;11971;51.148;4.104;2023-05-19T07:34:01;97.03;;;41.08;;
23586;SDS011;11971;51.148;4.104;2023-05-19T07:36:28;94.97;;;41.50;;
23586;SDS011;11971;51.148;4.104;2023-05-19T07:38:55;97.22;;;41.47;;
23586;SDS011;11971;51.148;4.104;2023-05-19T07:41:22;99.63;;;41.47;;
23586;SDS011;11971;51.148;4.104;2023-05-19T07:43:48;98.55;;;41.47;;
23586;SDS011;11971;51.148;4.104;2023-05-19T07:46:16;96.88;;;41.28;;
23586;SDS011;11971;51.148;4.104;2023-05-19T07:48:43;95.30;;;40.77;;
23586;SDS011;11971;51.148;4.104;2023-05-19T07:51:11;99.32;;;41.90;;
23586;SDS011;11971;51.148;4.104;2023-05-19T07:53:38;95.93;;;41.00;;
23586;SDS011;11971;51.148;4.104;2023-05-19T07:56:05;99.57;;;41.92;;
23586;SDS011;11971;51.148;4.104;2023-05-19T07:58:31;97.68;;;42.03;;
23586;SDS011;11971;51.148;4.104;2023-05-19T08:00:58;95.15;;;40.33;;
23586;SDS011;11971;51.148;4.104;2023-05-19T08:03:27;98.88;;;40.85;;
23586;SDS011;11971;51.148;4.104;2023-05-19T08:05:55;101.53;;;40.80;;
23586;SDS011;11971;51.148;4.104;2023-05-19T08:08:21;98.53;;;41.65;;
23586;SDS011;11971;51.148;4.104;2023-05-19T08:10:48;98.43;;;41.22;;
23586;SDS011;11971;51.148;4.104;2023-05-19T08:13:15;99.95;;;40.67;;
23586;SDS011;11971;51.148;4.104;2023-05-19T08:15:41;98.57;;;40.75;;
23586;SDS011;11971;51.148;4.104;2023-05-19T08:18:08;104.63;;;41.92;;
23586;SDS011;11971;51.148;4.104;2023-05-19T08:20:37;98.85;;;41.20;;
23586;SDS011;11971;51.148;4.104;2023-05-19T08:23:04;98.85;;;41.50;;
23586;SDS011;11971;51.148;4.104;2023-05-19T08:25:30;99.22;;;41.63;;
23586;SDS011;11971;51.148;4.104;2023-05-19T08:27:57;96.07;;;41.15;;
23586;SDS011;11971;51.148;4.104;2023-05-19T08:30:24;101.10;;;42.00;;
23586;SDS011;11971;51.148;4.104;2023-05-19T08:32:50;98.35;;;41.35;;
23586;SDS011;11971;51.148;4.104;2023-05-19T08:35:17;103.03;;;40.95;;
23586;SDS011;11971;51.148;4.104;2023-05-19T08:37:46;100.13;;;41.80;;
23586;SDS011;11971;51.148;4.104;2023-05-19T08:40:15;99.10;;;41.45;;
23586;SDS011;11971;51.148;4.104;2023-05-19T08:42:42;98.95;;;41.80;;
23586;SDS011;11971;51.148;4.104;2023-05-19T08:45:09;98.88;;;41.45;;
23586;SDS011;11971;51.148;4.104;2023-05-19T08:47:36;97.30;;;41.90;;
23586;SDS011;11971;51.148;4.104;2023-05-19T08:50:03;98.15;;;41.78;;
23586;SDS011;11971;51.148;4.104;2023-05-19T08:52:35;100.70;;;42.33;;
23586;SDS011;11971;51.148;4.104;2023-05-19T08:55:12;100.22;;;41.97;;
23586;SDS011;11971;51.148;4.104;2023-05-19T08:57:45;101.93;;;42.42;;
23586;SDS011;11971;51.148;4.104;2023-05-19T09:00:13;107.25;;;42.67;;
23586;SDS011;11971;51.148;4.104;2023-05-19T09:02:41;100.00;;;42.38;;
23586;SDS011;11971;51.148;4.104;2023-05-19T09:05:08;99.80;;;41.83;;
23586;SDS011;11971;51.148;4.104;2023-05-19T09:07:35;101.63;;;42.10;;
23586;SDS011;11971;51.148;4.104;2023-05-19T09:10:02;100.55;;;42.10;;
23586;SDS011;11971;51.148;4.104;2023-05-19T09:12:31;98.65;;;41.38;;
23586;SDS011;11971;51.148;4.104;2023-05-19T09:14:59;100.30;;;41.83;;
23586;SDS011;11971;51.148;4.104;2023-05-19T09:17:26;98.68;;;41.15;;
23586;SDS011;11971;51.148;4.104;2023-05-19T09:19:53;101.63;;;41.45;;
23586;SDS011;11971;51.148;4.104;2023-05-19T09:22:19;106.18;;;41.85;;
23586;SDS011;11971;51.148;4.104;2023-05-19T09:24:47;96.35;;;40.78;;
23586;SDS011;11971;51.148;4.104;2023-05-19T09:27:17;96.07;;;41.30;;
23586;SDS011;11971;51.148;4.104;2023-05-19T09:29:48;102.32;;;42.00;;
23586;SDS011;11971;51.148;4.104;2023-05-19T09:32:23;107.30;;;42.33;;
23586;SDS011;11971;51.148;4.104;2023-05-19T09:34:50;106.05;;;41.78;;
23586;SDS011;11971;51.148;4.104;2023-05-19T09:37:21;96.72;;;40.92;;
23586;SDS011;11971;51.148;4.104;2023-05-19T09:39:48;103.93;;;41.47;;
23586;SDS011;11971;51.148;4.104;2023-05-19T09:42:18;102.30;;;40.92;;
23586;SDS011;11971;51.148;4.104;2023-05-19T09:44:51;98.93;;;40.85;;
23586;SDS011;11971;51.148;4.104;2023-05-19T09:47:24;97.45;;;41.65;;
23586;SDS011;11971;51.148;4.104;2023-05-19T09:49:52;99.30;;;42.03;;
23586;SDS011;11971;51.148;4.104;2023-05-19T09:52:19;96.57;;;40.88;;
23586;SDS011;11971;51.148;4.104;2023-05-19T09:54:46;99.38;;;41.00;;
23586;SDS011;11971;51.148;4.104;2023-05-19T09:57:14;99.00;;;42.63;;
23586;SDS011;11971;51.148;4.104;2023-05-19T09:59:41;101.47;;;42.70;;
23586;SDS011;11971;51.148;4.104;2023-05-19T10:02:11;98.97;;;41.80;;
23586;SDS011;11971;51.148;4.104;2023-05-19T10:04:40;106.88;;;42.25;;
23586;SDS011;11971;51.148;4.104;2023-05-19T10:07:07;99.70;;;42.40;;
23586;SDS011;11971;51.148;4.104;2023-05-19T10:09:35;104.68;;;41.78;;
23586;SDS011;11971;51.148;4.104;2023-05-19T10:12:03;100.03;;;40.85;;
23586;SDS011;11971;51.148;4.104;2023-05-19T10:14:30;98.13;;;40.90;;
23586;SDS011;11971;51.148;4.104;2023-05-19T10:16:57;98.90;;;41.10;;
23586;SDS011;11971;51.148;4.104;2023-05-19T10:19:26;101.85;;;40.97;;
23586;SDS011;11971;51.148;4.104;2023-05-19T10:21:53;95.80;;;40.85;;
23586;SDS011;11971;51.148;4.104;2023-05-19T10:24:20;98.03;;;41.03;;
23586;SDS011;11971;51.148;4.104;2023-05-19T10:26:48;102.32;;;41.53;;
23586;SDS011;11971;51.148;4.104;2023-05-19T10:29:18;98.05;;;40.80;;
23586;SDS011;11971;51.148;4.104;2023-05-19T10:31:47;100.80;;;41.20;;
23586;SDS011;11971;51.148;4.104;2023-05-19T10:34:22;102.60;;;40.80;;
23586;SDS011;11971;51.148;4.104;2023-05-19T10:37:02;98.07;;;41.03;;
23586;SDS011;11971;51.148;4.104;2023-05-19T10:39:36;96.75;;;40.67;;
23586;SDS011;11971;51.148;4.104;2023-05-19T10:42:08;96.72;;;39.90;;
23586;SDS011;11971;51.148;4.104;2023-05-19T10:44:43;97.20;;;40.58;;
23586;SDS011;11971;51.148;4.104;2023-05-19T10:47:21;99.57;;;40.70;;
23586;SDS011;11971;51.148;4.104;2023-05-19T10:49:49;103.10;;;41.38;;
23586;SDS011;11971;51.148;4.104;2023-05-19T10:54:46;98.38;;;40.95;;
23586;SDS011;11971;51.148;4.104;2023-05-19T10:57:13;96.60;;;40.37;;
23586;SDS011;11971;51.148;4.104;2023-05-19T10:59:41;103.13;;;41.63;;
23586;SDS011;11971;51.148;4.104;2023-05-19T11:02:08;102.20;;;41.20;;
23586;SDS011;11971;51.148;4.104;2023-05-19T11:04:38;106.90;;;40.53;;
23586;SDS011;11971;51.148;4.104;2023-05-19T11:07:14;102.55;;;40.55;;
23586;SDS011;11971;51.148;4.104;2023-05-19T11:09:43;97.15;;;39.97;;
23586;SDS011;11971;51.148;4.104;2023-05-19T11:12:18;102.30;;;40.42;;
23586;SDS011;11971;51.148;4.104;2023-05-19T11:14:45;100.40;;;40.47;;
23586;SDS011;11971;51.148;4.104;2023-05-19T11:17:12;101.22;;;40.55;;
23586;SDS011;11971;51.148;4.104;2023-05-19T11:19:50;95.80;;;40.30;;
23586;SDS011;11971;51.148;4.104;2023-05-19T11:22:21;106.30;;;41.13;;
23586;SDS011;11971;51.148;4.104;2023-05-19T11:24:48;97.57;;;40.58;;
23586;SDS011;11971;51.148;4.104;2023-05-19T11:27:21;99.90;;;40.88;;
23586;SDS011;11971;51.148;4.104;2023-05-19T11:29:50;99.30;;;40.58;;
23586;SDS011;11971;51.148;4.104;2023-05-19T11:32:17;98.57;;;40.25;;
23586;SDS011;11971;51.148;4.104;2023-05-19T11:34:44;119.32;;;41.47;;
23586;SDS011;11971;51.148;4.104;2023-05-19T11:37:12;101.15;;;40.55;;
23586;SDS011;11971;51.148;4.104;2023-05-19T11:39:40;97.78;;;40.10;;
23586;SDS011;11971;51.148;4.104;2023-05-19T11:42:07;101.05;;;41.30;;
23586;SDS011;11971;51.148;4.104;2023-05-19T11:44:35;99.55;;;40.55;;
23586;SDS011;11971;51.148;4.104;2023-05-19T11:47:02;102.15;;;41.20;;
23586;SDS011;11971;51.148;4.104;2023-05-19T11:49:30;99.80;;;40.38;;
23586;SDS011;11971;51.148;4.104;2023-05-19T11:51:58;98.45;;;40.45;;
23586;SDS011;11971;51.148;4.104;2023-05-19T11:54:28;97.35;;;40.08;;
23586;SDS011;11971;51.148;4.104;2023-05-19T11:56:57;105.25;;;41.20;;
23586;SDS011;11971;51.148;4.104;2023-05-19T11:59:28;97.50;;;40.53;;
23586;SDS011;11971;51.148;4.104;2023-05-19T12:01:56;104.28;;;40.55;;
23586;SDS011;11971;51.148;4.104;2023-05-19T12:04:23;100.25;;;41.05;;
23586;SDS011;11971;51.148;4.104;2023-05-19T12:06:50;99.30;;;40.97;;
23586;SDS011;11971;51.148;4.104;2023-05-19T12:09:18;99.40;;;40.33;;
23586;SDS011;11971;51.148;4.104;2023-05-19T12:14:16;104.63;;;40.65;;
23586;SDS011;11971;51.148;4.104;2023-05-19T12:16:43;97.20;;;40.40;;
23586;SDS011;11971;51.148;4.104;2023-05-19T12:19:09;96.18;;;40.13;;
23586;SDS011;11971;51.148;4.104;2023-05-19T12:21:36;101.15;;;40.05;;
23586;SDS011;11971;51.148;4.104;2023-05-19T12:24:03;98.18;;;39.95;;
23586;SDS011;11971;51.148;4.104;2023-05-19T12:26:32;104.22;;;40.83;;
23586;SDS011;11971;51.148;4.104;2023-05-19T12:28:58;99.15;;;40.15;;
23586;SDS011;11971;51.148;4.104;2023-05-19T12:31:27;97.20;;;40.30;;
23586;SDS011;11971;51.148;4.104;2023-05-19T12:33:54;103.45;;;40.38;;
23586;SDS011;11971;51.148;4.104;2023-05-19T12:36:22;101.20;;;41.08;;
23586;SDS011;11971;51.148;4.104;2023-05-19T12:38:52;98.07;;;40.03;;
23586;SDS011;11971;51.148;4.104;2023-05-19T12:41:19;98.75;;;40.55;;
23586;SDS011;11971;51.148;4.104;2023-05-19T12:43:47;99.90;;;40.60;;
23586;SDS011;11971;51.148;4.104;2023-05-19T12:46:14;101.55;;;40.45;;
23586;SDS011;11971;51.148;4.104;2023-05-19T12:48:43;100.18;;;41.03;;
23586;SDS011;11971;51.148;4.104;2023-05-19T12:51:10;99.78;;;40.17;;
23586;SDS011;11971;51.148;4.104;2023-05-19T12:53:38;99.93;;;41.05;;
23586;SDS011;11971;51.148;4.104;2023-05-19T12:56:11;103.55;;;40.92;;
23586;SDS011;11971;51.148;4.104;2023-05-19T12:58:39;103.63;;;41.08;;
23586;SDS011;11971;51.148;4.104;2023-05-19T13:01:06;97.75;;;40.53;;
23586;SDS011;11971;51.148;4.104;2023-05-19T13:03:38;104.05;;;41.03;;
23586;SDS011;11971;51.148;4.104;2023-05-19T13:06:07;101.05;;;40.80;;
23586;SDS011;11971;51.148;4.104;2023-05-19T13:08:35;101.97;;;40.95;;
23586;SDS011;11971;51.148;4.104;2023-05-19T13:11:03;98.53;;;40.57;;
23586;SDS011;11971;51.148;4.104;2023-05-19T13:13:29;99.95;;;40.75;;
23586;SDS011;11971;51.148;4.104;2023-05-19T13:15:56;99.43;;;40.90;;
23586;SDS011;11971;51.148;4.104;2023-05-19T13:18:23;99.53;;;40.88;;
23586;SDS011;11971;51.148;4.104;2023-05-19T13:20:51;99.35;;;40.97;;
23586;SDS011;11971;51.148;4.104;2023-05-19T13:23:20;95.43;;;38.90;;
23586;SDS011;11971;51.148;4.104;2023-05-19T13:25:46;99.93;;;40.77;;
23586;SDS011;11971;51.148;4.104;2023-05-19T13:28:15;100.63;;;40.63;;
23586;SDS011;11971;51.148;4.104;2023-05-19T13:30:42;99.35;;;40.70;;
23586;SDS011;11971;51.148;4.104;2023-05-19T13:33:09;98.85;;;41.10;;
23586;SDS011;11971;51.148;4.104;2023-05-19T13:35:36;98.15;;;39.83;;
23586;SDS011;11971;51.148;4.104;2023-05-19T13:38:03;102.88;;;41.53;;
23586;SDS011;11971;51.148;4.104;2023-05-19T13:40:32;96.20;;;40.85;;
23586;SDS011;11971;51.148;4.104;2023-05-19T13:42:59;99.57;;;41.42;;
23586;SDS011;11971;51.148;4.104;2023-05-19T13:45:26;100.60;;;41.38;;
23586;SDS011;11971;51.148;4.104;2023-05-19T13:47:53;99.85;;;41.65;;
23586;SDS011;11971;51.148;4.104;2023-05-19T13:50:21;100.82;;;42.15;;
23586;SDS011;11971;51.148;4.104;2023-05-19T13:52:48;103.18;;;41.95;;
23586;SDS011;11971;51.148;4.104;2023-05-19T13:55:14;101.53;;;41.60;;
23586;SDS011;11971;51.148;4.104;2023-05-19T13:57:43;101.28;;;41.85;;
23586;SDS011;11971;51.148;4.104;2023-05-19T14:00:10;99.47;;;41.42;;
23586;SDS011;11971;51.148;4.104;2023-05-19T14:02:37;100.55;;;42.17;;
23586;SDS011;11971;51.148;4.104;2023-05-19T14:05:04;103.95;;;42.20;;
23586;SDS011;11971;51.148;4.104;2023-05-19T14:07:32;106.18;;;42.58;;
23586;SDS011;11971;51.148;4.104;2023-05-19T14:09:59;102.20;;;42.20;;
23586;SDS011;11971;51.148;4.104;2023-05-19T14:12:26;101.07;;;41.35;;
23586;SDS011;11971;51.148;4.104;2023-05-19T14:14:55;105.07;;;42.38;;
23586;SDS011;11971;51.148;4.104;2023-05-19T14:17:22;101.20;;;42.13;;
23586;SDS011;11971;51.148;4.104;2023-05-19T14:19:48;105.88;;;42.35;;
23586;SDS011;11971;51.148;4.104;2023-05-19T14:22:15;101.95;;;41.80;;
23586;SDS011;11971;51.148;4.104;2023-05-19T14:24:42;101.82;;;41.67;;
23586;SDS011;11971;51.148;4.104;2023-05-19T14:27:09;104.53;;;41.67;;
23586;SDS011;11971;51.148;4.104;2023-05-19T14:29:37;103.65;;;41.97;;
23586;SDS011;11971;51.148;4.104;2023-05-19T14:32:06;102.53;;;41.28;;
23586;SDS011;11971;51.148;4.104;2023-05-19T14:34:33;106.15;;;41.40;;
23586;SDS011;11971;51.148;4.104;2023-05-19T14:36:59;100.82;;;41.40;;
23586;SDS011;11971;51.148;4.104;2023-05-19T14:39:28;101.50;;;40.80;;